sensor_id;sensor_type;location;lat;lon;timestamp;pressure;altitude;pressure_sealevel;temperature;humidity
37634;BME280;32048;49.902;22.508;2023-08-17T00:01:13;99157.09;;;21.25;100.00
37634;BME280;32048;49.902;22.508;2023-08-17T00:03:40;99153.03;;;21.21;100.00
37634;BME280;32048;49.902;22.508;2023-08-17T00:06:07;99157.09;;;21.15;100.00
37634;BME280;32048;49.902;22.508;2023-08-17T00:08:34;99155.53;;;21.13;100.00
37634;BME280;32048;49.902;22.508;2023-08-17T00:11:01;99153.13;;;21.10;100.00
37634;BME280;32048;49.902;22.508;2023-08-17T00:13:28;99147.47;;;21.03;100.00
37634;BME280;32048;49.902;22.508;2023-08-17T00:15:55;99151.41;;;20.99;100.00
37634;BME280;32048;49.902;22.508;2023-08-17T00:18:22;99154.94;;;21.00;100.00
37634;BME280;32048;49.902;22.508;2023-08-17T00:20:49;99151.81;;;20.94;100.00
37634;BME280;32048;49.902;22.508;2023-08-17T00:23:16;99158.03;;;20.95;100.00
37634;BME280;32048;49.902;22.508;2023-08-17T00:25:43;99157.19;;;20.94;100.00
37634;BME280;32048;49.902;22.508;2023-08-17T00:28:10;99161.69;;;20.94;100.00
37634;BME280;32048;49.902;22.508;2023-08-17T00:30:37;99157.75;;;20.98;100.00
37634;BME280;32048;49.902;22.508;2023-08-17T00:33:05;99157.91;;;21.06;100.00
37634;BME280;32048;49.902;22.508;2023-08-17T00:35:32;99153.25;;;21.08;100.00
37634;BME280;32048;49.902;22.508;2023-08-17T00:37:59;99160.19;;;21.11;100.00
37634;BME280;32048;49.902;22.508;2023-08-17T00:40:27;99154.22;;;21.07;100.00
37634;BME280;32048;49.902;22.508;2023-08-17T00:42:54;99144.06;;;21.01;100.00
37634;BME280;32048;49.902;22.508;2023-08-17T00:45:22;99150.56;;;20.99;100.00
37634;BME280;32048;49.902;22.508;2023-08-17T00:47:50;99145.56;;;20.94;100.00
37634;BME280;32048;49.902;22.508;2023-08-17T00:50:17;99129.31;;;20.86;100.00
37634;BME280;32048;49.902;22.508;2023-08-17T00:52:44;99125.06;;;20.83;100.00
37634;BME280;32048;49.902;22.508;2023-08-17T00:55:12;99121.66;;;20.81;100.00
37634;BME280;32048;49.902;22.508;2023-08-17T00:57:40;99121.78;;;20.80;100.00
37634;BME280;32048;49.902;22.508;2023-08-17T01:00:11;99126.19;;;20.81;100.00
37634;BME280;32048;49.902;22.508;2023-08-17T01:02:43;99125.31;;;20.80;100.00
37634;BME280;32048;49.902;22.508;2023-08-17T01:05:11;99125.47;;;20.79;100.00
37634;BME280;32048;49.902;22.508;2023-08-17T01:07:40;99118.97;;;20.81;100.00
37634;BME280;32048;49.902;22.508;2023-08-17T01:10:09;99116.31;;;20.81;100.00
37634;BME280;32048;49.902;22.508;2023-08-17T01:15:19;99114.59;;;20.80;100.00
37634;BME280;32048;49.902;22.508;2023-08-17T01:18:03;99123.88;;;20.76;100.00
37634;BME280;32048;49.902;22.508;2023-08-17T01:20:32;99125.31;;;20.80;100.00
37634;BME280;32048;49.902;22.508;2023-08-17T01:23:06;99118.50;;;20.76;100.00
37634;BME280;32048;49.902;22.508;2023-08-17T01:25:34;99118.50;;;20.76;100.00
37634;BME280;32048;49.902;22.508;2023-08-17T01:28:09;99121.34;;;20.74;100.00
37634;BME280;32048;49.902;22.508;2023-08-17T01:30:43;99118.94;;;20.71;100.00
37634;BME280;32048;49.902;22.508;2023-08-17T01:33:38;99123.56;;;20.69;100.00
37634;BME280;32048;49.902;22.508;2023-08-17T01:36:21;99114.13;;;20.65;100.00
37634;BME280;32048;49.902;22.508;2023-08-17T01:38:51;99125.56;;;20.67;100.00
37634;BME280;32048;49.902;22.508;2023-08-17T01:41:20;99115.81;;;20.66;100.00
37634;BME280;32048;49.902;22.508;2023-08-17T01:43:49;99115.94;;;20.65;100.00
37634;BME280;32048;49.902;22.508;2023-08-17T01:46:18;99117.78;;;20.64;100.00
37634;BME280;32048;49.902;22.508;2023-08-17T01:48:45;99114.38;;;20.62;100.00
37634;BME280;32048;49.902;22.508;2023-08-17T01:51:18;99120.16;;;20.58;100.00
37634;BME280;32048;49.902;22.508;2023-08-17T01:53:46;99122.09;;;20.55;100.00
37634;BME280;32048;49.902;22.508;2023-08-17T01:56:14;99119.97;;;20.49;100.00
37634;BME280;32048;49.902;22.508;2023-08-17T01:58:41;99113.16;;;20.45;100.00
37634;BME280;32048;49.902;22.508;2023-08-17T02:01:08;99110.59;;;20.44;100.00
37634;BME280;32048;49.902;22.508;2023-08-17T02:03:35;99112.44;;;20.43;100.00
37634;BME280;32048;49.902;22.508;2023-08-17T02:06:02;99105.09;;;20.45;100.00
37634;BME280;32048;49.902;22.508;2023-08-17T02:08:30;99104.94;;;20.47;100.00
37634;BME280;32048;49.902;22.508;2023-08-17T02:10:57;99109.34;;;20.48;100.00
37634;BME280;32048;49.902;22.508;2023-08-17T02:13:24;99113.88;;;20.47;100.00
37634;BME280;32048;49.902;22.508;2023-08-17T02:15:51;99120.47;;;20.43;100.00
37634;BME280;32048;49.902;22.508;2023-08-17T02:18:18;99112.97;;;20.37;100.00
37634;BME280;32048;49.902;22.508;2023-08-17T02:20:45;99116.66;;;20.36;100.00
37634;BME280;32048;49.902;22.508;2023-08-17T02:23:12;99118.59;;;20.34;100.00
37634;BME280;32048;49.902;22.508;2023-08-17T02:25:39;99118.13;;;20.29;100.00
37634;BME280;32048;49.902;22.508;2023-08-17T02:28:06;99122.09;;;20.25;100.00
37634;BME280;32048;49.902;22.508;2023-08-17T02:30:34;99120.88;;;20.18;100.00
37634;BME280;32048;49.902;22.508;2023-08-17T02:33:01;99119.59;;;20.12;100.00
37634;BME280;32048;49.902;22.508;2023-08-17T02:35:29;99123.53;;;20.08;100.00
37634;BME280;32048;49.902;22.508;2023-08-17T02:37:56;99114.88;;;20.04;100.00
37634;BME280;32048;49.902;22.508;2023-08-17T02:40:23;99110.78;;;20.00;100.00
37634;BME280;32048;49.902;22.508;2023-08-17T02:42:50;99105.53;;;19.99;100.00
37634;BME280;32048;49.902;22.508;2023-08-17T02:45:18;99111.88;;;19.98;100.00
37634;BME280;32048;49.902;22.508;2023-08-17T02:47:44;99112.53;;;19.90;100.00
37634;BME280;32048;49.902;22.508;2023-08-17T02:50:12;99113.91;;;19.84;100.00
37634;BME280;32048;49.902;22.508;2023-08-17T02:52:39;99110.91;;;19.78;100.00
37634;BME280;32048;49.902;22.508;2023-08-17T02:55:06;99119.91;;;19.77;100.00
37634;BME280;32048;49.902;22.508;2023-08-17T02:57:33;99112.97;;;19.74;100.00
37634;BME280;32048;49.902;22.508;2023-08-17T03:00:00;99115.22;;;19.69;100.00
37634;BME280;32048;49.902;22.508;2023-08-17T03:02:27;99110.78;;;19.68;100.00
37634;BME280;32048;49.902;22.508;2023-08-17T03:04:55;99111.78;;;19.67;100.00
37634;BME280;32048;49.902;22.508;2023-08-17T03:07:22;99104.69;;;19.66;100.00
37634;BME280;32048;49.902;22.508;2023-08-17T03:09:49;99101.06;;;19.67;100.00
37634;BME280;32048;49.902;22.508;2023-08-17T03:12:16;99102.25;;;19.74;100.00
37634;BME280;32048;49.902;22.508;2023-08-17T03:14:43;99106.25;;;19.80;100.00
37634;BME280;32048;49.902;22.508;2023-08-17T03:17:10;99096.13;;;19.83;100.00
37634;BME280;32048;49.902;22.508;2023-08-17T03:19:37;99105.88;;;19.84;100.00
37634;BME280;32048;49.902;22.508;2023-08-17T03:22:04;99105.00;;;19.84;100.00
37634;BME280;32048;49.902;22.508;2023-08-17T03:24:31;99105.88;;;19.84;100.00
37634;BME280;32048;49.902;22.508;2023-08-17T03:26:58;99098.28;;;19.89;100.00
37634;BME280;32048;49.902;22.508;2023-08-17T03:29:26;99095.94;;;19.96;100.00
37634;BME280;32048;49.902;22.508;2023-08-17T03:31:53;99093.44;;;20.04;100.00
37634;BME280;32048;49.902;22.508;2023-08-17T03:34:22;99097.50;;;19.99;100.00
37634;BME280;32048;49.902;22.508;2023-08-17T03:36:49;99098.44;;;20.09;100.00
37634;BME280;32048;49.902;22.508;2023-08-17T03:39:17;99096.19;;;20.14;100.00
37634;BME280;32048;49.902;22.508;2023-08-17T03:41:44;99110.16;;;20.18;100.00
37634;BME280;32048;49.902;22.508;2023-08-17T03:44:11;99115.69;;;20.16;100.00
37634;BME280;32048;49.902;22.508;2023-08-17T03:46:40;99117.63;;;20.14;100.00
37634;BME280;32048;49.902;22.508;2023-08-17T04:01:50;99137.19;;;20.77;100.00
37634;BME280;32048;49.902;22.508;2023-08-17T04:04:17;99129.50;;;20.63;100.00
37634;BME280;32048;49.902;22.508;2023-08-17T04:06:44;99134.56;;;20.57;100.00
37634;BME280;32048;49.902;22.508;2023-08-17T04:09:12;99136.75;;;20.51;100.00
37634;BME280;32048;49.902;22.508;2023-08-17T04:11:39;99136.31;;;20.46;100.00
37634;BME280;32048;49.902;22.508;2023-08-17T04:14:06;99139.97;;;20.45;100.00
37634;BME280;32048;49.902;22.508;2023-08-17T04:16:33;99135.34;;;20.47;100.00
37634;BME280;32048;49.902;22.508;2023-08-17T04:19:00;99135.91;;;20.51;100.00
37634;BME280;32048;49.902;22.508;2023-08-17T04:21:27;99136.84;;;20.61;100.00
37634;BME280;32048;49.902;22.508;2023-08-17T04:23:56;99143.25;;;20.70;100.00
37634;BME280;32048;49.902;22.508;2023-08-17T04:26:22;99139.75;;;20.79;100.00
37634;BME280;32048;49.902;22.508;2023-08-17T04:28:50;99145.13;;;20.89;100.00
37634;BME280;32048;49.902;22.508;2023-08-17T04:31:17;99146.28;;;20.96;100.00
37634;BME280;32048;49.902;22.508;2023-08-17T04:33:45;99141.09;;;21.04;100.00
37634;BME280;32048;49.902;22.508;2023-08-17T04:36:12;99147.47;;;21.13;100.00
37634;BME280;32048;49.902;22.508;2023-08-17T04:38:39;99147.50;;;21.23;100.00
37634;BME280;32048;49.902;22.508;2023-08-17T04:41:06;99150.22;;;21.32;100.00
37634;BME280;32048;49.902;22.508;2023-08-17T04:43:33;99154.50;;;21.45;100.00
37634;BME280;32048;49.902;22.508;2023-08-17T04:46:00;99148.03;;;21.57;100.00
37634;BME280;32048;49.902;22.508;2023-08-17T04:48:27;99162.28;;;21.67;100.00
37634;BME280;32048;49.902;22.508;2023-08-17T04:50:54;99166.69;;;21.78;100.00
37634;BME280;32048;49.902;22.508;2023-08-17T04:53:21;99167.97;;;21.93;100.00
37634;BME280;32048;49.902;22.508;2023-08-17T04:55:48;99172.91;;;22.08;100.00
37634;BME280;32048;49.902;22.508;2023-08-17T04:58:16;99173.34;;;22.23;100.00
37634;BME280;32048;49.902;22.508;2023-08-17T05:00:43;99170.59;;;22.42;100.00
37634;BME280;32048;49.902;22.508;2023-08-17T05:03:10;99170.56;;;22.61;100.00
37634;BME280;32048;49.902;22.508;2023-08-17T05:05:57;99174.47;;;22.77;100.00
37634;BME280;32048;49.902;22.508;2023-08-17T05:08:24;99177.03;;;22.78;100.00
37634;BME280;32048;49.902;22.508;2023-08-17T05:10:51;99173.91;;;22.73;100.00
37634;BME280;32048;49.902;22.508;2023-08-17T05:13:18;99173.06;;;22.73;100.00
37634;BME280;32048;49.902;22.508;2023-08-17T05:15:46;99161.03;;;22.77;100.00
37634;BME280;32048;49.902;22.508;2023-08-17T05:18:13;99160.25;;;22.84;100.00
37634;BME280;32048;49.902;22.508;2023-08-17T05:20:40;99161.09;;;22.95;100.00
37634;BME280;32048;49.902;22.508;2023-08-17T05:23:07;99162.38;;;23.00;100.00
37634;BME280;32048;49.902;22.508;2023-08-17T05:25:34;99160.34;;;23.02;100.00
37634;BME280;32048;49.902;22.508;2023-08-17T05:28:02;99172.28;;;23.00;100.00
37634;BME280;32048;49.902;22.508;2023-08-17T05:30:29;99167.03;;;22.98;100.00
37634;BME280;32048;49.902;22.508;2023-08-17T05:32:56;99175.97;;;22.99;100.00
37634;BME280;32048;49.902;22.508;2023-08-17T05:35:23;99181.63;;;22.96;100.00
37634;BME280;32048;49.902;22.508;2023-08-17T05:37:50;99177.56;;;22.92;100.00
37634;BME280;32048;49.902;22.508;2023-08-17T05:40:17;99172.16;;;22.92;100.00
37634;BME280;32048;49.902;22.508;2023-08-17T05:42:44;99170.19;;;22.94;100.00
37634;BME280;32048;49.902;22.508;2023-08-17T05:45:11;99175.69;;;22.92;100.00
37634;BME280;32048;49.902;22.508;2023-08-17T05:47:38;99175.13;;;22.89;100.00
37634;BME280;32048;49.902;22.508;2023-08-17T05:50:06;99172.88;;;22.84;100.00
37634;BME280;32048;49.902;22.508;2023-08-17T05:52:33;99165.50;;;22.86;100.00
37634;BME280;32048;49.902;22.508;2023-08-17T05:55:00;99167.03;;;22.98;100.00
37634;BME280;32048;49.902;22.508;2023-08-17T05:57:27;99168.56;;;23.11;100.00
37634;BME280;32048;49.902;22.508;2023-08-17T05:59:54;99171.34;;;23.19;100.00
37634;BME280;32048;49.902;22.508;2023-08-17T06:02:22;99173.78;;;23.12;100.00
37634;BME280;32048;49.902;22.508;2023-08-17T06:04:49;99168.84;;;23.08;100.00
37634;BME280;32048;49.902;22.508;2023-08-17T06:07:16;99168.84;;;23.08;100.00
37634;BME280;32048;49.902;22.508;2023-08-17T06:09:43;99168.69;;;23.09;100.00
37634;BME280;32048;49.902;22.508;2023-08-17T06:12:10;99166.69;;;23.11;100.00
37634;BME280;32048;49.902;22.508;2023-08-17T06:14:37;99174.50;;;23.14;100.00
37634;BME280;32048;49.902;22.508;2023-08-17T06:17:05;99164.25;;;23.18;100.00
37634;BME280;32048;49.902;22.508;2023-08-17T06:19:32;99168.91;;;23.26;100.00
37634;BME280;32048;49.902;22.508;2023-08-17T06:22:00;99156.53;;;23.33;100.00
37634;BME280;32048;49.902;22.508;2023-08-17T06:24:28;99157.97;;;23.45;100.00
37634;BME280;32048;49.902;22.508;2023-08-17T06:26:55;99159.00;;;23.62;100.00
37634;BME280;32048;49.902;22.508;2023-08-17T06:29:22;99159.03;;;23.80;100.00
37634;BME280;32048;49.902;22.508;2023-08-17T06:31:50;99158.72;;;24.01;100.00
37634;BME280;32048;49.902;22.508;2023-08-17T06:34:17;99160.69;;;24.17;100.00
37634;BME280;32048;49.902;22.508;2023-08-17T06:36:57;99175.28;;;24.24;100.00
37634;BME280;32048;49.902;22.508;2023-08-17T06:39:27;99165.69;;;24.30;100.00
37634;BME280;32048;49.902;22.508;2023-08-17T06:41:55;99162.03;;;24.39;100.00
37634;BME280;32048;49.902;22.508;2023-08-17T06:44:22;99160.88;;;24.41;100.00
37634;BME280;32048;49.902;22.508;2023-08-17T06:46:49;99160.28;;;24.47;100.00
37634;BME280;32048;49.902;22.508;2023-08-17T06:49:16;99166.03;;;24.53;100.00
37634;BME280;32048;49.902;22.508;2023-08-17T06:51:43;99167.91;;;24.52;100.00
37634;BME280;32048;49.902;22.508;2023-08-17T06:54:10;99165.34;;;24.51;100.00
37634;BME280;32048;49.902;22.508;2023-08-17T06:56:37;99164.41;;;24.60;100.00
37634;BME280;32048;49.902;22.508;2023-08-17T06:59:04;99154.19;;;24.72;100.00
37634;BME280;32048;49.902;22.508;2023-08-17T07:01:31;99160.19;;;24.92;100.00
37634;BME280;32048;49.902;22.508;2023-08-17T07:03:59;99152.19;;;25.16;100.00
37634;BME280;32048;49.902;22.508;2023-08-17T07:06:29;99151.44;;;25.40;100.00
37634;BME280;32048;49.902;22.508;2023-08-17T07:08:57;99150.16;;;25.61;100.00
37634;BME280;32048;49.902;22.508;2023-08-17T07:11:25;99164.22;;;25.81;100.00
37634;BME280;32048;49.902;22.508;2023-08-17T07:13:52;99168.44;;;25.91;99.86
37634;BME280;32048;49.902;22.508;2023-08-17T07:16:19;99172.00;;;26.00;98.74
37634;BME280;32048;49.902;22.508;2023-08-17T07:18:47;99172.03;;;26.17;98.67
37634;BME280;32048;49.902;22.508;2023-08-17T07:21:15;99169.63;;;26.38;95.79
37634;BME280;32048;49.902;22.508;2023-08-17T07:23:44;99164.69;;;26.50;95.38
37634;BME280;32048;49.902;22.508;2023-08-17T07:26:12;99163.22;;;26.56;93.53
37634;BME280;32048;49.902;22.508;2023-08-17T07:28:39;99157.94;;;26.62;91.00
37634;BME280;32048;49.902;22.508;2023-08-17T07:31:06;99159.31;;;26.58;89.06
37634;BME280;32048;49.902;22.508;2023-08-17T07:33:38;99160.81;;;26.52;89.59
37634;BME280;32048;49.902;22.508;2023-08-17T07:36:07;99160.81;;;26.61;89.62
37634;BME280;32048;49.902;22.508;2023-08-17T07:38:34;99161.63;;;26.78;89.02
37634;BME280;32048;49.902;22.508;2023-08-17T07:41:01;99166.03;;;27.26;87.78
37634;BME280;32048;49.902;22.508;2023-08-17T07:43:28;99168.25;;;27.85;84.21
37634;BME280;32048;49.902;22.508;2023-08-17T07:45:56;99166.13;;;28.18;81.64
37634;BME280;32048;49.902;22.508;2023-08-17T07:48:24;99165.97;;;28.35;79.54
37634;BME280;32048;49.902;22.508;2023-08-17T07:50:52;99166.59;;;28.60;79.09
37634;BME280;32048;49.902;22.508;2023-08-17T07:53:19;99171.00;;;28.76;74.54
37634;BME280;32048;49.902;22.508;2023-08-17T07:55:47;99169.53;;;28.88;77.29
37634;BME280;32048;49.902;22.508;2023-08-17T07:58:16;99166.16;;;29.16;76.58
37634;BME280;32048;49.902;22.508;2023-08-17T08:00:44;99163.91;;;29.56;71.41
37634;BME280;32048;49.902;22.508;2023-08-17T08:03:11;99164.66;;;29.86;69.44
37634;BME280;32048;49.902;22.508;2023-08-17T08:05:38;99156.53;;;30.36;68.38
37634;BME280;32048;49.902;22.508;2023-08-17T08:08:05;99155.94;;;30.97;64.28
37634;BME280;32048;49.902;22.508;2023-08-17T08:10:33;99163.13;;;31.53;60.95
37634;BME280;32048;49.902;22.508;2023-08-17T08:13:00;99156.25;;;31.83;56.92
37634;BME280;32048;49.902;22.508;2023-08-17T08:15:27;99156.94;;;31.99;56.37
37634;BME280;32048;49.902;22.508;2023-08-17T08:17:54;99160.09;;;32.56;54.61
37634;BME280;32048;49.902;22.508;2023-08-17T08:20:22;99161.63;;;33.30;51.22
37634;BME280;32048;49.902;22.508;2023-08-17T08:22:49;99146.81;;;34.08;47.30
37634;BME280;32048;49.902;22.508;2023-08-17T08:25:16;99150.31;;;34.72;48.35
37634;BME280;32048;49.902;22.508;2023-08-17T08:27:43;99150.97;;;35.29;45.52
37634;BME280;32048;49.902;22.508;2023-08-17T08:30:10;99162.75;;;35.78;42.48
37634;BME280;32048;49.902;22.508;2023-08-17T08:32:37;99164.00;;;36.48;42.09
37634;BME280;32048;49.902;22.508;2023-08-17T08:35:05;99167.94;;;37.40;41.08
37634;BME280;32048;49.902;22.508;2023-08-17T08:37:32;99155.47;;;37.78;37.51
37634;BME280;32048;49.902;22.508;2023-08-17T08:40:00;99145.88;;;37.80;36.90
37634;BME280;32048;49.902;22.508;2023-08-17T08:42:29;99146.25;;;38.01;36.19
37634;BME280;32048;49.902;22.508;2023-08-17T08:44:56;99139.69;;;38.53;32.13
37634;BME280;32048;49.902;22.508;2023-08-17T08:47:23;99143.44;;;38.63;31.29
37634;BME280;32048;49.902;22.508;2023-08-17T08:50:02;99134.34;;;38.85;31.64
37634;BME280;32048;49.902;22.508;2023-08-17T08:52:35;99139.63;;;39.30;29.65
37634;BME280;32048;49.902;22.508;2023-08-17T08:55:10;99132.38;;;39.46;29.83
37634;BME280;32048;49.902;22.508;2023-08-17T08:57:38;99129.50;;;39.90;29.59
37634;BME280;32048;49.902;22.508;2023-08-17T09:00:07;99127.50;;;40.45;27.92
37634;BME280;32048;49.902;22.508;2023-08-17T09:02:34;99131.22;;;41.14;27.81
37634;BME280;32048;49.902;22.508;2023-08-17T09:05:02;99122.22;;;41.60;26.91
37634;BME280;32048;49.902;22.508;2023-08-17T09:07:30;99123.66;;;41.78;26.40
37634;BME280;32048;49.902;22.508;2023-08-17T09:09:59;99116.69;;;41.85;26.74
37634;BME280;32048;49.902;22.508;2023-08-17T09:12:26;99116.31;;;41.41;27.52
37634;BME280;32048;49.902;22.508;2023-08-17T09:15:06;99115.63;;;41.03;29.47
37634;BME280;32048;49.902;22.508;2023-08-17T09:17:36;99116.47;;;40.56;30.56
37634;BME280;32048;49.902;22.508;2023-08-17T09:20:04;99110.88;;;40.13;29.90
37634;BME280;32048;49.902;22.508;2023-08-17T09:22:42;99119.84;;;39.39;31.64
37634;BME280;32048;49.902;22.508;2023-08-17T09:25:22;99112.00;;;38.86;33.17
37634;BME280;32048;49.902;22.508;2023-08-17T09:27:49;99107.72;;;38.23;32.22
37634;BME280;32048;49.902;22.508;2023-08-17T09:30:16;99103.50;;;37.12;33.75
37634;BME280;32048;49.902;22.508;2023-08-17T09:32:47;99109.16;;;35.99;34.01
37634;BME280;32048;49.902;22.508;2023-08-17T09:35:14;99101.38;;;35.24;35.22
37634;BME280;32048;49.902;22.508;2023-08-17T09:37:41;99101.00;;;34.65;36.30
37634;BME280;32048;49.902;22.508;2023-08-17T09:40:09;99094.66;;;34.21;37.51
37634;BME280;32048;49.902;22.508;2023-08-17T09:42:36;99105.50;;;33.84;38.88
37634;BME280;32048;49.902;22.508;2023-08-17T09:45:03;99102.34;;;33.49;40.65
37634;BME280;32048;49.902;22.508;2023-08-17T09:47:30;99091.78;;;33.59;41.52
37634;BME280;32048;49.902;22.508;2023-08-17T09:49:58;99086.94;;;34.36;40.63
37634;BME280;32048;49.902;22.508;2023-08-17T09:52:25;99089.25;;;35.32;36.55
37634;BME280;32048;49.902;22.508;2023-08-17T09:54:53;99086.13;;;36.24;33.34
37634;BME280;32048;49.902;22.508;2023-08-17T09:57:24;99092.44;;;36.83;31.92
37634;BME280;32048;49.902;22.508;2023-08-17T09:59:51;99086.56;;;37.32;31.80
37634;BME280;32048;49.902;22.508;2023-08-17T10:02:23;99084.19;;;38.15;30.76
37634;BME280;32048;49.902;22.508;2023-08-17T10:04:55;99073.59;;;39.29;29.17
37634;BME280;32048;49.902;22.508;2023-08-17T10:07:29;99088.97;;;40.39;28.78
37634;BME280;32048;49.902;22.508;2023-08-17T10:10:03;99081.06;;;41.16;26.45
37634;BME280;32048;49.902;22.508;2023-08-17T10:12:39;99085.25;;;41.23;25.37
37634;BME280;32048;49.902;22.508;2023-08-17T10:15:13;99084.03;;;40.99;25.64
37634;BME280;32048;49.902;22.508;2023-08-17T10:18:16;99078.81;;;40.12;27.22
37634;BME280;32048;49.902;22.508;2023-08-17T10:20:54;99078.75;;;39.20;29.81
37634;BME280;32048;49.902;22.508;2023-08-17T10:23:27;99082.78;;;38.13;29.82
37634;BME280;32048;49.902;22.508;2023-08-17T10:25:54;99083.84;;;37.20;31.71
37634;BME280;32048;49.902;22.508;2023-08-17T10:28:23;99085.09;;;37.01;33.60
37634;BME280;32048;49.902;22.508;2023-08-17T10:30:51;99087.31;;;36.75;32.71
37634;BME280;32048;49.902;22.508;2023-08-17T10:33:18;99081.69;;;36.70;34.22
37634;BME280;32048;49.902;22.508;2023-08-17T10:35:46;99077.13;;;36.52;33.72
37634;BME280;32048;49.902;22.508;2023-08-17T10:38:15;99076.78;;;36.25;34.53
37634;BME280;32048;49.902;22.508;2023-08-17T10:40:42;99085.69;;;35.85;35.75
37634;BME280;32048;49.902;22.508;2023-08-17T10:43:09;99082.00;;;35.79;37.48
37634;BME280;32048;49.902;22.508;2023-08-17T10:45:38;99084.56;;;35.32;36.29
37634;BME280;32048;49.902;22.508;2023-08-17T10:50:37;99073.03;;;34.13;38.93
37634;BME280;32048;49.902;22.508;2023-08-17T10:53:12;99074.88;;;33.62;40.79
37634;BME280;32048;49.902;22.508;2023-08-17T10:55:41;99078.00;;;33.27;42.71
37634;BME280;32048;49.902;22.508;2023-08-17T10:58:08;99075.63;;;32.99;42.90
37634;BME280;32048;49.902;22.508;2023-08-17T11:00:42;99070.66;;;32.76;43.40
37634;BME280;32048;49.902;22.508;2023-08-17T11:03:18;99070.47;;;32.64;44.45
37634;BME280;32048;49.902;22.508;2023-08-17T11:05:47;99067.50;;;32.72;45.67
37634;BME280;32048;49.902;22.508;2023-08-17T11:10:57;99075.91;;;32.78;42.80
37634;BME280;32048;49.902;22.508;2023-08-17T11:13:29;99071.72;;;32.75;42.86
37634;BME280;32048;49.902;22.508;2023-08-17T11:15:59;99065.28;;;33.01;43.26
37634;BME280;32048;49.902;22.508;2023-08-17T11:18:32;99068.84;;;33.47;43.51
37634;BME280;32048;49.902;22.508;2023-08-17T11:21:01;99067.09;;;34.16;42.67
37634;BME280;32048;49.902;22.508;2023-08-17T11:23:31;99065.00;;;35.10;42.09
37634;BME280;32048;49.902;22.508;2023-08-17T11:25:59;99058.19;;;35.73;40.03
37634;BME280;32048;49.902;22.508;2023-08-17T11:28:29;99066.38;;;36.39;38.22
37634;BME280;32048;49.902;22.508;2023-08-17T11:31:03;99060.53;;;36.99;37.86
37634;BME280;32048;49.902;22.508;2023-08-17T11:33:31;99067.28;;;37.78;36.55
37634;BME280;32048;49.902;22.508;2023-08-17T11:36:00;99062.53;;;38.24;34.93
37634;BME280;32048;49.902;22.508;2023-08-17T11:38:33;99065.84;;;38.82;33.29
37634;BME280;32048;49.902;22.508;2023-08-17T11:41:02;99059.53;;;38.86;33.24
37634;BME280;32048;49.902;22.508;2023-08-17T11:43:30;99056.78;;;38.64;33.61
37634;BME280;32048;49.902;22.508;2023-08-17T11:46:00;99052.44;;;38.13;35.03
37634;BME280;32048;49.902;22.508;2023-08-17T11:48:28;99052.75;;;38.16;36.14
37634;BME280;32048;49.902;22.508;2023-08-17T11:50:55;99041.50;;;38.40;35.21
37634;BME280;32048;49.902;22.508;2023-08-17T11:53:22;99045.72;;;38.64;34.76
37634;BME280;32048;49.902;22.508;2023-08-17T11:55:51;99038.63;;;38.68;34.18
37634;BME280;32048;49.902;22.508;2023-08-17T11:58:36;99045.56;;;38.32;34.35
37634;BME280;32048;49.902;22.508;2023-08-17T12:01:09;99040.81;;;37.77;34.90
37634;BME280;32048;49.902;22.508;2023-08-17T12:03:38;99046.13;;;37.21;36.07
37634;BME280;32048;49.902;22.508;2023-08-17T12:06:06;99036.81;;;36.58;37.88
37634;BME280;32048;49.902;22.508;2023-08-17T12:08:34;99043.31;;;36.16;40.06
37634;BME280;32048;49.902;22.508;2023-08-17T12:11:02;99031.25;;;36.06;40.54
37634;BME280;32048;49.902;22.508;2023-08-17T12:13:33;99029.94;;;36.32;39.32
37634;BME280;32048;49.902;22.508;2023-08-17T12:16:02;99038.94;;;36.79;37.55
37634;BME280;32048;49.902;22.508;2023-08-17T12:18:33;99038.84;;;36.74;35.96
37634;BME280;32048;49.902;22.508;2023-08-17T12:21:03;99043.41;;;36.45;36.08
37634;BME280;32048;49.902;22.508;2023-08-17T12:23:32;99033.63;;;36.02;37.44
37634;BME280;32048;49.902;22.508;2023-08-17T12:26:00;99037.91;;;35.74;38.07
37634;BME280;32048;49.902;22.508;2023-08-17T12:28:27;99033.63;;;35.48;39.16
37634;BME280;32048;49.902;22.508;2023-08-17T12:31:01;99034.81;;;35.41;39.18
37634;BME280;32048;49.902;22.508;2023-08-17T12:33:29;99032.97;;;35.65;40.24
37634;BME280;32048;49.902;22.508;2023-08-17T12:35:56;99026.94;;;35.86;37.55
37634;BME280;32048;49.902;22.508;2023-08-17T12:38:24;99022.63;;;36.02;37.75
37634;BME280;32048;49.902;22.508;2023-08-17T12:40:53;99027.44;;;36.30;36.65
37634;BME280;32048;49.902;22.508;2023-08-17T12:43:20;99023.31;;;36.68;36.96
37634;BME280;32048;49.902;22.508;2023-08-17T12:45:48;99017.38;;;36.88;36.30
37634;BME280;32048;49.902;22.508;2023-08-17T12:48:15;99013.97;;;36.69;36.82
37634;BME280;32048;49.902;22.508;2023-08-17T12:50:44;99009.38;;;36.11;37.75
37634;BME280;32048;49.902;22.508;2023-08-17T12:53:11;99009.22;;;35.82;37.65
37634;BME280;32048;49.902;22.508;2023-08-17T12:55:38;99006.00;;;35.31;38.96
37634;BME280;32048;49.902;22.508;2023-08-17T12:58:08;99002.44;;;34.82;38.73
37634;BME280;32048;49.902;22.508;2023-08-17T13:00:37;98996.19;;;34.93;38.46
37634;BME280;32048;49.902;22.508;2023-08-17T13:03:04;98992.66;;;35.05;39.67
37634;BME280;32048;49.902;22.508;2023-08-17T13:05:32;98997.03;;;34.94;37.80
37634;BME280;32048;49.902;22.508;2023-08-17T13:07:59;98987.75;;;34.76;39.28
37634;BME280;32048;49.902;22.508;2023-08-17T13:10:27;98995.69;;;34.48;38.58
37634;BME280;32048;49.902;22.508;2023-08-17T13:12:54;98989.88;;;34.19;38.93